createdAt,value
2023-03-24T00:08:04.660Z,100887.00
2023-03-24T00:10:35.098Z,100872.66
2023-03-24T00:13:06.384Z,100877.91
2023-03-24T00:20:17.245Z,100883.38
2023-03-24T00:22:59.050Z,100883.34
2023-03-24T00:25:34.160Z,100877.03
2023-03-24T00:28:07.458Z,100887.06
2023-03-24T00:30:42.415Z,100885.28
2023-03-24T00:33:11.761Z,100873.41
2023-03-24T00:35:42.128Z,100875.78
2023-03-24T00:38:14.191Z,100867.47
2023-03-24T00:40:47.381Z,100866.06
2023-03-24T00:43:21.880Z,100878.69
2023-03-24T00:56:27.342Z,100868.97
2023-03-24T00:58:58.139Z,100871.47
2023-03-24T01:01:32.452Z,100886.16
2023-03-24T01:04:04.366Z,100883.38
2023-03-24T01:06:36.005Z,100886.78
2023-03-24T01:09:05.877Z,100892.81
2023-03-24T01:11:41.697Z,100895.34
2023-03-24T01:14:12.206Z,100890.41
2023-03-24T01:16:41.263Z,100890.88
2023-03-24T01:19:10.456Z,100875.31
2023-03-24T01:21:39.404Z,100865.88
2023-03-24T01:24:07.920Z,100861.59
2023-03-24T01:26:38.828Z,100864.81
2023-03-24T01:29:07.574Z,100864.47
2023-03-24T01:31:36.710Z,100838.97
2023-03-24T01:34:12.476Z,100836.81
2023-03-24T01:36:40.638Z,100835.31
2023-03-24T01:39:09.168Z,100827.72
2023-03-24T01:41:42.361Z,100834.78
2023-03-24T01:44:29.770Z,100852.22
2023-03-24T01:46:58.693Z,100837.47
2023-03-24T01:49:36.634Z,100841.22
2023-03-24T01:52:11.177Z,100846.22
2023-03-24T01:54:48.830Z,100833.59
2023-03-24T01:58:38.541Z,100834.78
2023-03-24T02:01:37.683Z,100839.28
2023-03-24T02:04:59.065Z,100832.94
2023-03-24T02:07:45.659Z,100847.53
2023-03-24T02:10:17.965Z,100827.13
2023-03-24T02:12:47.057Z,100829.63
2023-03-24T02:15:19.647Z,100832.94
2023-03-24T02:18:19.269Z,100831.00
2023-03-24T02:21:05.947Z,100824.59
2023-03-24T02:24:03.207Z,100835.31
2023-03-24T02:26:59.989Z,100819.88
2023-03-24T02:30:09.491Z,100818.91
2023-03-24T02:33:28.323Z,100814.91
2023-03-24T02:36:11.921Z,100823.75
2023-03-24T02:39:16.498Z,100813.97
2023-03-24T02:42:22.742Z,100813.00
2023-03-24T02:45:06.316Z,100802.94
2023-03-24T02:47:55.521Z,100809.56
2023-03-24T02:50:35.136Z,100800.25
2023-03-24T02:53:34.214Z,100797.34
2023-03-24T02:57:00.467Z,100790.16
2023-03-24T03:00:07.643Z,100803.72
2023-03-24T03:03:16.772Z,100805.66
2023-03-24T03:06:03.306Z,100801.34
2023-03-24T03:08:34.170Z,100813.69
2023-03-24T03:11:10.206Z,100806.44
2023-03-24T03:13:54.937Z,100804.00
2023-03-24T03:16:38.729Z,100817.97
2023-03-24T03:23:58.706Z,100806.34
2023-03-24T03:26:33.141Z,100801.47
2023-03-24T03:29:11.973Z,100803.66
2023-03-24T03:31:53.324Z,100815.28
2023-03-24T03:43:17.702Z,100781.56
2023-03-24T03:45:46.828Z,100780.06
2023-03-24T03:48:18.816Z,100772.16
2023-03-24T03:50:48.028Z,100784.66
2023-03-24T03:53:21.763Z,100778.69
2023-03-24T03:56:03.133Z,100783.09
2023-03-24T03:58:40.732Z,100769.16
2023-03-24T04:01:14.637Z,100769.88
2023-03-24T04:04:22.155Z,100780.72
2023-03-24T04:07:32.699Z,100779.25
2023-03-24T04:10:30.798Z,100781.13
2023-03-24T04:13:27.128Z,100785.63
2023-03-24T04:16:40.415Z,100781.34
2023-03-24T04:19:31.580Z,100778.63
2023-03-24T04:22:08.002Z,100797.66
2023-03-24T04:25:00.261Z,100787.25
2023-03-24T04:27:47.714Z,100779.16
2023-03-24T04:30:23.614Z,100794.69
2023-03-24T04:33:03.981Z,100788.31
2023-03-24T04:35:44.829Z,100799.13
2023-03-24T04:38:26.487Z,100798.34
2023-03-24T04:41:18.069Z,100799.22
2023-03-24T04:43:57.441Z,100794.50
2023-03-24T04:46:26.306Z,100782.59
2023-03-24T04:49:06.495Z,100789.94
2023-03-24T04:51:37.315Z,100781.25
2023-03-24T04:54:07.954Z,100776.25
2023-03-24T04:56:48.696Z,100789.75
2023-03-24T04:59:26.465Z,100777.72
2023-03-24T05:01:55.009Z,100779.72
2023-03-24T05:04:43.809Z,100796.22
2023-03-24T05:07:22.538Z,100796.00
2023-03-24T05:09:55.957Z,100803.50
2023-03-24T05:12:24.191Z,100797.00
2023-03-24T05:15:16.158Z,100813.63
2023-03-24T05:17:44.984Z,100811.91
2023-03-24T05:20:16.877Z,100808.59
2023-03-24T05:22:50.234Z,100824.69
2023-03-24T05:25:18.920Z,100811.25
2023-03-24T05:27:53.193Z,100812.09
2023-03-24T05:30:33.277Z,100805.44
2023-03-24T05:33:11.697Z,100807.72
2023-03-24T05:35:39.820Z,100829.09
2023-03-24T05:38:10.898Z,100814.97
2023-03-24T05:40:44.549Z,100819.63
2023-03-24T05:43:15.039Z,100808.88
2023-03-24T05:45:50.424Z,100834.91
2023-03-24T05:48:30.762Z,100829.88
2023-03-24T05:51:17.476Z,100831.47
2023-03-24T05:53:47.230Z,100835.47
2023-03-24T05:56:31.561Z,100840.09
2023-03-24T05:59:15.994Z,100850.28
2023-03-24T06:02:10.766Z,100844.00
2023-03-24T06:04:51.944Z,100856.97
2023-03-24T06:07:26.764Z,100857.13
2023-03-24T06:10:03.521Z,100857.53
2023-03-24T06:12:41.449Z,100842.56
2023-03-24T06:15:10.071Z,100845.81
2023-03-24T06:17:39.489Z,100847.50
2023-03-24T06:20:16.722Z,100840.25
2023-03-24T06:23:08.463Z,100848.44
2023-03-24T06:25:46.390Z,100849.03
2023-03-24T06:28:26.387Z,100831.88
2023-03-24T06:30:59.219Z,100842.16
2023-03-24T06:33:34.964Z,100848.19
2023-03-24T06:36:04.428Z,100852.31
2023-03-24T06:38:33.827Z,100846.91
2023-03-24T06:41:04.237Z,100846.59
2023-03-24T06:43:36.109Z,100847.09
2023-03-24T06:46:03.995Z,100845.16
2023-03-24T06:48:33.937Z,100863.72
2023-03-24T06:51:07.715Z,100849.75
2023-03-24T06:53:36.407Z,100850.25
2023-03-24T06:56:05.338Z,100843.41
2023-03-24T06:58:40.614Z,100847.56
2023-03-24T07:01:11.747Z,100863.78
2023-03-24T07:03:56.192Z,100847.31
2023-03-24T07:07:03.532Z,100855.88
2023-03-24T07:09:35.809Z,100856.72
2023-03-24T07:12:06.305Z,100855.66
2023-03-24T07:14:38.051Z,100870.72
2023-03-24T07:17:07.498Z,100867.72
2023-03-24T07:19:46.061Z,100867.06
2023-03-24T07:22:37.125Z,100871.22
2023-03-24T07:25:25.753Z,100870.84
2023-03-24T07:28:25.795Z,100865.63
2023-03-24T07:30:59.440Z,100866.72
2023-03-24T07:33:27.351Z,100877.25
2023-03-24T07:35:59.529Z,100882.31
2023-03-24T07:38:28.200Z,100883.25
2023-03-24T07:41:04.381Z,100871.13
2023-03-24T07:43:35.423Z,100862.66
2023-03-24T07:46:03.135Z,100869.00
2023-03-24T07:48:31.571Z,100850.09
2023-03-24T07:50:59.612Z,100859.00
2023-03-24T07:53:49.741Z,100861.50
2023-03-24T07:56:27.485Z,100850.75
2023-03-24T07:59:00.966Z,100873.72
2023-03-24T08:01:48.583Z,100870.59
2023-03-24T08:04:19.568Z,100855.44
2023-03-24T08:06:58.795Z,100865.94
2023-03-24T08:09:26.811Z,100862.97
2023-03-24T08:11:54.988Z,100855.81
2023-03-24T08:14:28.502Z,100858.28
2023-03-24T08:22:07.501Z,100852.78
2023-03-24T08:24:40.595Z,100854.69
2023-03-24T08:27:09.217Z,100846.34
2023-03-24T08:29:37.923Z,100853.72
2023-03-24T08:32:06.210Z,100848.72
2023-03-24T08:39:20.897Z,100858.00
2023-03-24T08:41:50.411Z,100850.88
2023-03-24T08:44:18.325Z,100861.69
2023-03-24T09:01:06.096Z,100865.88
2023-03-24T09:08:08.345Z,100866.69
2023-03-24T09:15:12.878Z,100849.44
2023-03-24T09:26:44.961Z,100858.25
2023-03-24T09:34:54.325Z,100866.47
2023-03-24T09:47:21.657Z,100859.88
2023-03-24T10:47:48.299Z,100804.59
2023-03-24T10:55:09.042Z,100811.44
2023-03-24T11:02:23.190Z,100800.16
2023-03-24T11:24:45.657Z,100777.09
2023-03-24T11:32:01.399Z,100763.75
2023-03-24T11:36:36.427Z,100773.44
2023-03-24T11:39:36.975Z,100774.00
2023-03-24T11:46:40.428Z,100752.53
2023-03-24T12:03:37.852Z,100734.56
2023-03-24T12:06:30.605Z,100737.97
2023-03-24T12:09:07.643Z,100727.31
2023-03-24T12:16:19.963Z,100716.34
2023-03-24T12:38:48.351Z,100687.59
2023-03-24T13:30:22.894Z,100635.47
2023-03-24T13:34:05.924Z,100633.13
2023-03-24T13:51:57.737Z,100617.69
2023-03-24T14:04:21.298Z,100586.19
2023-03-24T14:12:08.780Z,100573.72
2023-03-24T14:16:01.794Z,100570.00
2023-03-24T14:38:25.144Z,100554.22
2023-03-24T14:41:47.486Z,100550.53
2023-03-24T14:53:42.140Z,100523.50
2023-03-24T15:15:03.534Z,100542.72
2023-03-24T15:22:29.582Z,100548.34
2023-03-24T15:25:54.638Z,100539.84
2023-03-24T15:28:30.086Z,100548.38
2023-03-24T15:36:46.442Z,100530.91
2023-03-24T15:39:20.318Z,100531.09
2023-03-24T15:41:54.383Z,100536.00
2023-03-24T15:44:28.015Z,100531.28
2023-03-24T15:46:58.955Z,100541.72
2023-03-24T15:49:32.809Z,100536.59
2023-03-24T15:52:04.300Z,100535.38
2023-03-24T15:54:43.648Z,100536.88
2023-03-24T15:57:19.001Z,100542.56
2023-03-24T15:59:59.256Z,100538.22
2023-03-24T16:02:30.275Z,100541.91
2023-03-24T16:09:41.108Z,100549.44
2023-03-24T16:12:11.243Z,100539.00
2023-03-24T16:14:39.270Z,100531.03
2023-03-24T16:17:07.668Z,100540.72
2023-03-24T16:19:36.245Z,100538.97
2023-03-24T16:22:15.321Z,100536.13
2023-03-24T16:24:43.522Z,100526.50
2023-03-24T16:27:14.695Z,100540.09
2023-03-24T16:29:43.772Z,100534.97
2023-03-24T16:32:17.160Z,100540.25
2023-03-24T16:44:18.098Z,100542.53
2023-03-24T16:46:47.244Z,100549.94
2023-03-24T16:49:17.758Z,100546.50
2023-03-24T16:51:47.310Z,100533.72
2023-03-24T16:54:15.698Z,100527.22
2023-03-24T16:56:43.954Z,100535.84
2023-03-24T16:59:18.217Z,100535.31
2023-03-24T17:01:47.934Z,100541.72
2023-03-24T17:04:29.493Z,100537.75
2023-03-24T17:06:59.373Z,100534.75
2023-03-24T17:09:29.548Z,100534.34
2023-03-24T17:11:59.957Z,100535.75
2023-03-24T17:14:30.310Z,100543.41
2023-03-24T17:17:25.833Z,100549.66
2023-03-24T17:19:58.316Z,100539.69
2023-03-24T17:22:26.495Z,100548.97
2023-03-24T17:24:59.614Z,100545.69
2023-03-24T17:27:33.351Z,100537.00
2023-03-24T17:30:02.494Z,100537.88
2023-03-24T17:32:34.209Z,100543.00
2023-03-24T17:41:09.517Z,100530.06
2023-03-24T17:43:42.381Z,100521.50
2023-03-24T17:46:11.604Z,100520.97
2023-03-24T17:48:49.265Z,100539.56
2023-03-24T17:51:17.878Z,100537.72
2023-03-24T17:56:32.214Z,100540.13
2023-03-24T17:59:00.286Z,100536.59
2023-03-24T18:01:40.385Z,100526.06
2023-03-24T18:04:08.692Z,100524.66
2023-03-24T18:06:38.854Z,100521.22
2023-03-24T18:09:07.582Z,100521.53
2023-03-24T18:11:38.761Z,100534.03
2023-03-24T18:14:09.577Z,100515.25
2023-03-24T18:16:40.558Z,100528.66
2023-03-24T18:19:12.318Z,100518.97
2023-03-24T18:21:44.656Z,100518.94
2023-03-24T18:24:13.116Z,100519.81
2023-03-24T18:26:45.828Z,100526.06
2023-03-24T18:29:14.335Z,100527.34
2023-03-24T18:31:42.617Z,100525.91
2023-03-24T18:34:11.216Z,100515.81
2023-03-24T18:36:40.373Z,100523.81
2023-03-24T18:39:09.945Z,100522.97
2023-03-24T18:41:38.117Z,100523.81
2023-03-24T18:44:11.857Z,100528.09
2023-03-24T18:46:40.481Z,100527.66
2023-03-24T18:49:14.952Z,100530.31
2023-03-24T18:56:24.218Z,100534.00
2023-03-24T18:58:59.255Z,100520.25
2023-03-24T19:01:33.519Z,100517.84
2023-03-24T19:04:02.976Z,100516.56
2023-03-24T19:06:36.188Z,100511.59
2023-03-24T19:09:05.723Z,100502.63
2023-03-24T19:11:33.771Z,100516.63
2023-03-24T19:18:53.599Z,100515.50
2023-03-24T19:21:23.672Z,100511.94
2023-03-24T19:23:53.610Z,100509.13
2023-03-24T19:26:31.081Z,100504.75
2023-03-24T19:29:01.529Z,100503.59
2023-03-24T19:31:30.023Z,100519.19
2023-03-24T19:33:59.922Z,100517.75
2023-03-24T19:36:27.999Z,100523.69
2023-03-24T19:38:56.183Z,100512.84
2023-03-24T19:41:31.977Z,100519.75
2023-03-24T19:44:03.002Z,100519.34
2023-03-24T19:46:31.922Z,100512.66
2023-03-24T19:50:19.288Z,100516.03
2023-03-24T19:52:47.861Z,100514.13
2023-03-24T20:01:22.406Z,100528.75
2023-03-24T20:14:12.750Z,100530.66
2023-03-24T20:21:18.787Z,100525.72
2023-03-24T20:23:46.991Z,100530.09
2023-03-24T20:26:18.911Z,100525.03
2023-03-24T20:28:49.443Z,100533.16
2023-03-24T20:36:30.012Z,100544.13
2023-03-24T20:39:00.524Z,100550.50
2023-03-24T20:41:28.657Z,100533.03
2023-03-24T20:43:56.939Z,100528.13
2023-03-24T20:46:27.801Z,100529.28
2023-03-24T20:48:57.112Z,100534.41
2023-03-24T20:51:25.931Z,100535.13
2023-03-24T20:58:57.462Z,100547.25
2023-03-24T21:10:07.884Z,100546.03
2023-03-24T21:22:22.954Z,100535.59
2023-03-24T21:30:08.458Z,100535.34
2023-03-24T21:37:34.560Z,100526.88
2023-03-24T21:44:35.662Z,100537.88
2023-03-24T21:47:03.543Z,100538.66
2023-03-24T21:49:34.382Z,100522.75
2023-03-24T21:52:05.864Z,100535.66
2023-03-24T22:03:41.577Z,100517.66
2023-03-24T22:10:43.431Z,100516.97
2023-03-24T22:14:47.025Z,100521.97
2023-03-24T22:17:15.759Z,100514.13
2023-03-24T22:19:44.709Z,100509.97
2023-03-24T22:22:12.974Z,100525.06
2023-03-24T22:24:42.260Z,100511.19
2023-03-24T22:27:11.286Z,100511.34
2023-03-24T22:29:42.512Z,100512.50
2023-03-24T22:46:16.572Z,100501.34
2023-03-24T22:58:13.544Z,100521.81
2023-03-24T23:00:49.450Z,100504.34
2023-03-24T23:13:05.504Z,100503.06
2023-03-24T23:49:11.269Z,100526.31
2023-03-24T23:52:06.038Z,100526.19
2023-03-24T23:59:06.753Z,100509.72
